PWSweather.com
Personal Weather Stations
Station Observations
KAZSIERR7
Canyon De Flores, Sierra Vista, AZ 85650

Canyon De FloresSierra Vista, AZ 85650

Lat: 31.5, Lon: -110.26

Elevation: 4645

Station Type: LaCrosse WS-3610 & Boltek Lightning Detector

http://www.lightningring.com/weather/

High Low Average
Temperature 61.1°F16.2°F 45.5°F7.5°F 54.8°F12.7°F
Dew Point 46.6°F8.1°F 18.1°F-7.7°F 39.1°F3.9°F
Winds 9.4 mph W15.1 mph W Calm Calm 3.4 mph 5.5 mph
Wind Gusts 34.2 mph55.0 mph -- 12.5 mph20.1 mph
Humidity 91% 20% 59%
Pressure 30.04 in1017.30 in 29.96 in1014.60 in -
Precipitation 4.36 in110.70 in - -
Hour Temp Dew Point Humidity Winds Wind Gusts Pressure Precip Precip Rate Daily Precip Total
12:01 AM 57.7°F14.3°C 30.7°F-0.7°C 36% 3.1 mph NE5.0 kmh NE 8.2 mph13.2 kmh 30.04 in1017.3 mb 0.00 in0.0 mm 0.00 in/hr0.0 mm/hr 0.00 in0.0 mm
12:06 AM 58.1°F14.5°C 28.2°F-2.1°C 32% 1.3 mph 2.1 kmh 7.3 mph11.7 kmh 30.04 in1017.3 mb 0.00 in0.0 mm 0.00 in/hr0.0 mm/hr 0.00 in0.0 mm
12:11 AM 57.7°F14.3°C 31.5°F-0.3°C 37% 2.2 mph NW3.5 kmh NW 2.2 mph3.5 kmh 30.04 in1017.3 mb 0.00 in0.0 mm 0.00 in/hr0.0 mm/hr 0.00 in0.0 mm
12:17 AM 56.8°F13.8°C 31.3°F-0.4°C 36% 2.6 mph WNW4.2 kmh WNW 7.1 mph11.4 kmh 30.04 in1017.3 mb 0.00 in0.0 mm 0.00 in/hr0.0 mm/hr 0.00 in0.0 mm
12:22 AM 58.3°F14.6°C 27.0°F-2.8°C 30% 4.9 mph WSW7.9 kmh WSW 10.2 mph16.4 kmh 30.03 in1016.9 mb 0.00 in0.0 mm 0.00 in/hr0.0 mm/hr 0.00 in0.0 mm
12:27 AM 57.9°F14.4°C 30.2°F-1.0°C 35% 2.4 mph W3.9 kmh W 11.6 mph18.7 kmh 30.04 in1017.3 mb 0.00 in0.0 mm 0.00 in/hr0.0 mm/hr 0.00 in0.0 mm
12:32 AM 57.6°F14.2°C 29.1°F-1.6°C 34% 4.0 mph SSE6.4 kmh SSE 11.6 mph18.7 kmh 30.04 in1017.3 mb 0.00 in0.0 mm 0.00 in/hr0.0 mm/hr 0.00 in0.0 mm
12:38 AM 57.9°F14.4°C 26.6°F-3.0°C 30% 3.8 mph ENE6.1 kmh ENE 8.2 mph13.2 kmh 30.04 in1017.3 mb 0.00 in0.0 mm 0.00 in/hr0.0 mm/hr 0.00 in0.0 mm
12:43 AM 58.6°F14.8°C 24.4°F-4.2°C 28% 2.5 mph SE4.0 kmh SE 8.2 mph13.2 kmh 30.04 in1017.3 mb 0.00 in0.0 mm 0.00 in/hr0.0 mm/hr 0.00 in0.0 mm
12:48 AM 58.3°F14.6°C 26.1°F-3.3°C 29% 0.4 mph 0.6 kmh 3.3 mph5.3 kmh 30.04 in1017.3 mb 0.00 in0.0 mm 0.00 in/hr0.0 mm/hr 0.00 in0.0 mm
12:53 AM 58.3°F14.6°C 26.1°F-3.3°C 29% 0.8 mph ENE1.3 kmh ENE 3.3 mph5.3 kmh 30.04 in1017.3 mb 0.00 in0.0 mm 0.00 in/hr0.0 mm/hr 0.00 in0.0 mm
12:59 AM 58.6°F14.8°C 25.3°F-3.7°C 27% 3.5 mph SSE5.6 kmh SSE 17.0 mph27.4 kmh 30.04 in1017.3 mb 0.00 in0.0 mm 0.00 in/hr0.0 mm/hr 0.00 in0.0 mm
01:04 AM 58.6°F14.8°C 25.3°F-3.7°C 28% 0.9 mph SW1.4 kmh SW 17.0 mph27.4 kmh 30.03 in1016.9 mb 0.00 in0.0 mm 0.00 in/hr0.0 mm/hr 0.00 in0.0 mm
01:09 AM 58.3°F14.6°C 25.0°F-3.9°C 26% 2.2 mph S3.5 kmh S 2.2 mph3.5 kmh 30.03 in1016.9 mb 0.00 in0.0 mm 0.00 in/hr0.0 mm/hr 0.00 in0.0 mm
01:14 AM 58.3°F14.6°C 22.1°F-5.5°C 25% 2.2 mph SSW3.5 kmh SSW 7.3 mph11.7 kmh 30.03 in1016.9 mb 0.00 in0.0 mm 0.00 in/hr0.0 mm/hr 0.00 in0.0 mm
01:20 AM 58.6°F14.8°C 22.5°F-5.3°C 25% 0.5 mph W0.8 kmh W 17.2 mph27.7 kmh 30.02 in1016.6 mb 0.00 in0.0 mm 0.00 in/hr0.0 mm/hr 0.00 in0.0 mm
01:25 AM 58.3°F14.6°C 22.1°F-5.5°C 25% 2.4 mph E3.9 kmh E 17.2 mph27.7 kmh 30.03 in1016.9 mb 0.00 in0.0 mm 0.00 in/hr0.0 mm/hr 0.00 in0.0 mm
01:30 AM 58.6°F14.8°C 21.4°F-5.9°C 24% 4.9 mph S7.9 kmh S 14.7 mph23.7 kmh 30.02 in1016.6 mb 0.00 in0.0 mm 0.00 in/hr0.0 mm/hr 0.00 in0.0 mm
01:35 AM 58.8°F14.9°C 18.7°F-7.4°C 22% 2.3 mph SSW3.7 kmh SSW 14.7 mph23.7 kmh 30.01 in1016.3 mb 0.00 in0.0 mm 0.00 in/hr0.0 mm/hr 0.00 in0.0 mm
01:41 AM 59.2°F15.1°C 19.9°F-6.7°C 22% 3.0 mph SW4.8 kmh SW 19.2 mph30.9 kmh 30.02 in1016.6 mb 0.00 in0.0 mm 0.00 in/hr0.0 mm/hr 0.00 in0.0 mm
01:46 AM 59.5°F15.3°C 19.4°F-7.0°C 20% 7.0 mph SW11.3 kmh SW 24.6 mph39.6 kmh 30.01 in1016.3 mb 0.00 in0.0 mm 0.00 in/hr0.0 mm/hr 0.00 in0.0 mm
01:51 AM 59.4°F15.2°C 18.1°F-7.7°C 20% 3.1 mph SSE5.0 kmh SSE 24.6 mph39.6 kmh 30.01 in1016.3 mb 0.00 in0.0 mm 0.00 in/hr0.0 mm/hr 0.00 in0.0 mm
01:56 AM 59.2°F15.1°C 19.0°F-7.2°C 21% 5.5 mph SW8.9 kmh SW 18.1 mph29.1 kmh 30.00 in1015.9 mb 0.00 in0.0 mm 0.00 in/hr0.0 mm/hr 0.00 in0.0 mm
02:02 AM 59.4°F15.2°C 19.2°F-7.1°C 21% 6.0 mph WNW9.7 kmh WNW 14.3 mph23.0 kmh 30.00 in1015.9 mb 0.00 in0.0 mm 0.00 in/hr0.0 mm/hr 0.00 in0.0 mm
02:07 AM 59.4°F15.2°C 19.2°F-7.1°C 21% 4.6 mph WSW7.4 kmh WSW 16.3 mph26.2 kmh 30.00 in1015.9 mb 0.00 in0.0 mm 0.00 in/hr0.0 mm/hr 0.00 in0.0 mm
02:12 AM 59.4°F15.2°C 21.0°F-6.1°C 23% 3.8 mph WSW6.1 kmh WSW 17.4 mph28.0 kmh 29.99 in1015.6 mb 0.00 in0.0 mm 0.00 in/hr0.0 mm/hr 0.00 in0.0 mm
02:17 AM 59.5°F15.3°C 23.2°F-4.9°C 25% 1.3 mph WSW2.1 kmh WSW 16.5 mph26.6 kmh 29.99 in1015.6 mb 0.00 in0.0 mm 0.00 in/hr0.0 mm/hr 0.00 in0.0 mm
02:23 AM 59.5°F15.3°C 24.1°F-4.4°C 26% 6.4 mph SSW10.3 kmh SSW 21.9 mph35.2 kmh 29.99 in1015.6 mb 0.00 in0.0 mm 0.00 in/hr0.0 mm/hr 0.00 in0.0 mm
02:28 AM 59.2°F15.1°C 24.8°F-4.0°C 27% 6.7 mph S10.8 kmh S 21.9 mph35.2 kmh 29.99 in1015.6 mb 0.00 in0.0 mm 0.00 in/hr0.0 mm/hr 0.00 in0.0 mm
02:33 AM 58.8°F14.9°C 25.5°F-3.6°C 28% 7.0 mph SW11.3 kmh SW 23.0 mph37.0 kmh 29.99 in1015.6 mb 0.00 in0.0 mm 0.00 in/hr0.0 mm/hr 0.00 in0.0 mm
02:38 AM 59.2°F15.1°C 27.7°F-2.4°C 30% 7.0 mph SSW11.3 kmh SSW 29.9 mph48.1 kmh 29.99 in1015.6 mb 0.00 in0.0 mm 0.00 in/hr0.0 mm/hr 0.00 in0.0 mm
02:44 AM 58.8°F14.9°C 28.2°F-2.1°C 31% 3.2 mph SW5.1 kmh SW 29.9 mph48.1 kmh 29.99 in1015.6 mb 0.00 in0.0 mm 0.00 in/hr0.0 mm/hr 0.00 in0.0 mm
02:49 AM 58.3°F14.6°C 27.7°F-2.4°C 31% 3.8 mph SSE6.1 kmh SSE 16.3 mph26.2 kmh 29.99 in1015.6 mb 0.00 in0.0 mm 0.00 in/hr0.0 mm/hr 0.00 in0.0 mm
02:54 AM 58.3°F14.6°C 29.1°F-1.6°C 33% 5.8 mph SSW9.3 kmh SSW 20.3 mph32.7 kmh 29.98 in1015.2 mb 0.00 in0.0 mm 0.00 in/hr0.0 mm/hr 0.00 in0.0 mm
02:59 AM 58.6°F14.8°C 30.0°F-1.1°C 34% 6.4 mph SW10.3 kmh SW 20.3 mph32.7 kmh 29.98 in1015.2 mb 0.00 in0.0 mm 0.00 in/hr0.0 mm/hr 0.00 in0.0 mm
03:05 AM 58.6°F14.8°C 30.0°F-1.1°C 34% 2.9 mph S4.7 kmh S 19.9 mph32.0 kmh 29.98 in1015.2 mb 0.00 in0.0 mm 0.00 in/hr0.0 mm/hr 0.00 in0.0 mm
03:10 AM 58.6°F14.8°C 30.7°F-0.7°C 35% 6.1 mph S9.8 kmh S 19.9 mph32.0 kmh 29.98 in1015.2 mb 0.00 in0.0 mm 0.00 in/hr0.0 mm/hr 0.00 in0.0 mm
03:15 AM 58.8°F14.9°C 30.9°F-0.6°C 35% 7.9 mph SSW12.7 kmh SSW 21.2 mph34.1 kmh 29.98 in1015.2 mb 0.00 in0.0 mm 0.00 in/hr0.0 mm/hr 0.00 in0.0 mm
03:20 AM 58.6°F14.8°C 30.7°F-0.7°C 36% 7.0 mph S11.3 kmh S 21.2 mph34.1 kmh 29.98 in1015.2 mb 0.00 in0.0 mm 0.00 in/hr0.0 mm/hr 0.00 in0.0 mm
03:26 AM 58.6°F14.8°C 31.5°F-0.3°C 36% 2.8 mph N4.5 kmh N 19.4 mph31.2 kmh 29.98 in1015.2 mb 0.00 in0.0 mm 0.00 in/hr0.0 mm/hr 0.00 in0.0 mm
03:31 AM 58.6°F14.8°C 32.2°F0.1°C 37% 3.9 mph WSW6.3 kmh WSW 18.5 mph29.8 kmh 29.98 in1015.2 mb 0.00 in0.0 mm 0.00 in/hr0.0 mm/hr 0.00 in0.0 mm
03:36 AM 58.8°F14.9°C 32.4°F0.2°C 37% 3.3 mph W5.3 kmh W 4.2 mph6.8 kmh 29.97 in1014.9 mb 0.00 in0.0 mm 0.00 in/hr0.0 mm/hr 0.00 in0.0 mm
03:41 AM 58.3°F14.6°C 32.5°F0.3°C 38% 4.9 mph SSW7.9 kmh SSW 12.7 mph20.4 kmh 29.97 in1014.9 mb 0.00 in0.0 mm 0.00 in/hr0.0 mm/hr 0.00 in0.0 mm
03:47 AM 58.3°F14.6°C 33.3°F0.7°C 39% 5.4 mph SSW8.7 kmh SSW 14.9 mph24.0 kmh 29.98 in1015.2 mb 0.00 in0.0 mm 0.00 in/hr0.0 mm/hr 0.00 in0.0 mm
03:52 AM 58.3°F14.6°C 33.3°F0.7°C 39% 3.9 mph S6.3 kmh S 16.7 mph26.9 kmh 29.98 in1015.2 mb 0.00 in0.0 mm 0.00 in/hr0.0 mm/hr 0.00 in0.0 mm
03:57 AM 58.3°F14.6°C 33.3°F0.7°C 40% 2.2 mph WSW3.5 kmh WSW 16.7 mph26.9 kmh 29.97 in1014.9 mb 0.00 in0.0 mm 0.00 in/hr0.0 mm/hr 0.00 in0.0 mm
04:02 AM 57.9°F14.4°C 33.6°F0.9°C 40% 0.9 mph SW1.4 kmh SW 11.1 mph17.9 kmh 29.98 in1015.2 mb 0.00 in0.0 mm 0.00 in/hr0.0 mm/hr 0.00 in0.0 mm
04:08 AM 57.7°F14.3°C 34.0°F1.1°C 41% 2.7 mph W4.3 kmh W 10.9 mph17.5 kmh 29.98 in1015.2 mb 0.00 in0.0 mm 0.00 in/hr0.0 mm/hr 0.00 in0.0 mm
04:13 AM 57.6°F14.2°C 34.0°F1.1°C 41% 2.2 mph SW3.5 kmh SW 10.9 mph17.5 kmh 29.98 in1015.2 mb 0.00 in0.0 mm 0.00 in/hr0.0 mm/hr 0.00 in0.0 mm
04:18 AM 57.4°F14.1°C 33.8°F1.0°C 41% 2.9 mph S4.7 kmh S 10.0 mph16.1 kmh 29.98 in1015.2 mb 0.00 in0.0 mm 0.00 in/hr0.0 mm/hr 0.00 in0.0 mm
04:23 AM 57.0°F13.9°C 34.0°F1.1°C 42% 2.4 mph SSE3.9 kmh SSE 3.5 mph5.6 kmh 29.98 in1015.2 mb 0.00 in0.0 mm 0.00 in/hr0.0 mm/hr 0.00 in0.0 mm
04:29 AM 56.8°F13.8°C 33.8°F1.0°C 43% 0.8 mph WSW1.3 kmh WSW 14.0 mph22.5 kmh 29.99 in1015.6 mb 0.00 in0.0 mm 0.00 in/hr0.0 mm/hr 0.00 in0.0 mm
04:34 AM 56.7°F13.7°C 34.2°F1.2°C 43% 3.6 mph SW5.8 kmh SW 14.0 mph22.5 kmh 29.99 in1015.6 mb 0.00 in0.0 mm 0.00 in/hr0.0 mm/hr 0.00 in0.0 mm
04:39 AM 55.9°F13.3°C 34.2°F1.2°C 44% 2.4 mph NW3.9 kmh NW 4.2 mph6.8 kmh 29.99 in1015.6 mb 0.00 in0.0 mm 0.00 in/hr0.0 mm/hr 0.00 in0.0 mm
04:44 AM 56.1°F13.4°C 34.9°F1.6°C 45% 2.6 mph WSW4.2 kmh WSW 18.1 mph29.1 kmh 29.98 in1015.2 mb 0.00 in0.0 mm 0.00 in/hr0.0 mm/hr 0.00 in0.0 mm
04:50 AM 55.9°F13.3°C 35.2°F1.8°C 46% 3.2 mph WSW5.1 kmh WSW 18.1 mph29.1 kmh 29.98 in1015.2 mb 0.00 in0.0 mm 0.00 in/hr0.0 mm/hr 0.00 in0.0 mm
04:55 AM 55.9°F13.3°C 36.3°F2.4°C 48% 5.0 mph SE8.0 kmh SE 19.2 mph30.9 kmh 29.98 in1015.2 mb 0.00 in0.0 mm 0.00 in/hr0.0 mm/hr 0.00 in0.0 mm
05:01 AM 55.6°F13.1°C 36.0°F2.2°C 48% 2.6 mph WSW4.2 kmh WSW 19.2 mph30.9 kmh 29.99 in1015.6 mb 0.00 in0.0 mm 0.00 in/hr0.0 mm/hr 0.00 in0.0 mm
05:06 AM 55.2°F12.9°C 36.3°F2.4°C 49% 4.0 mph S6.4 kmh S 6.4 mph10.3 kmh 29.98 in1015.2 mb 0.00 in0.0 mm 0.00 in/hr0.0 mm/hr 0.00 in0.0 mm
05:11 AM 55.4°F13.0°C 37.0°F2.8°C 50% 2.9 mph SW4.7 kmh SW 9.3 mph15.0 kmh 29.98 in1015.2 mb 0.00 in0.0 mm 0.00 in/hr0.0 mm/hr 0.00 in0.0 mm
05:16 AM 55.8°F13.2°C 37.4°F3.0°C 50% 5.7 mph SSW9.2 kmh SSW 18.5 mph29.8 kmh 29.98 in1015.2 mb 0.00 in0.0 mm 0.00 in/hr0.0 mm/hr 0.00 in0.0 mm
05:22 AM 55.6°F13.1°C 36.5°F2.5°C 49% 2.8 mph WNW4.5 kmh WNW 18.5 mph29.8 kmh 29.99 in1015.6 mb 0.00 in0.0 mm 0.00 in/hr0.0 mm/hr 0.00 in0.0 mm
05:27 AM 55.6°F13.1°C 37.2°F2.9°C 50% 6.3 mph SW10.1 kmh SW 24.6 mph39.6 kmh 29.99 in1015.6 mb 0.00 in0.0 mm 0.00 in/hr0.0 mm/hr 0.00 in0.0 mm
05:32 AM 55.6°F13.1°C 36.5°F2.5°C 49% 7.8 mph SSW12.6 kmh SSW 24.6 mph39.6 kmh 29.99 in1015.6 mb 0.00 in0.0 mm 0.00 in/hr0.0 mm/hr 0.00 in0.0 mm
05:37 AM 55.2°F12.9°C 36.9°F2.7°C 50% 5.1 mph WSW8.2 kmh WSW 15.8 mph25.4 kmh 29.99 in1015.6 mb 0.00 in0.0 mm 0.00 in/hr0.0 mm/hr 0.00 in0.0 mm
05:43 AM 55.0°F12.8°C 37.0°F2.8°C 51% 2.1 mph SW3.4 kmh SW 5.1 mph8.2 kmh 30.00 in1015.9 mb 0.00 in0.0 mm 0.00 in/hr0.0 mm/hr 0.00 in0.0 mm
05:48 AM 55.0°F12.8°C 37.0°F2.8°C 51% 5.0 mph N8.0 kmh N 16.7 mph26.9 kmh 30.00 in1015.9 mb 0.00 in0.0 mm 0.00 in/hr0.0 mm/hr 0.00 in0.0 mm
05:53 AM 54.9°F12.7°C 36.9°F2.7°C 51% 4.0 mph ESE6.4 kmh ESE 16.7 mph26.9 kmh 30.00 in1015.9 mb 0.00 in0.0 mm 0.00 in/hr0.0 mm/hr 0.00 in0.0 mm
05:58 AM 54.7°F12.6°C 36.9°F2.7°C 52% 2.5 mph WSW4.0 kmh WSW 6.9 mph11.1 kmh 30.00 in1015.9 mb 0.00 in0.0 mm 0.00 in/hr0.0 mm/hr 0.00 in0.0 mm
06:04 AM 54.7°F12.6°C 36.9°F2.7°C 52% Calm Calm 3.5 mph5.6 kmh 30.00 in1015.9 mb 0.00 in0.0 mm 0.00 in/hr0.0 mm/hr 0.00 in0.0 mm
06:09 AM 54.7°F12.6°C 37.2°F2.9°C 52% 3.0 mph W4.8 kmh W 4.4 mph7.1 kmh 30.00 in1015.9 mb 0.00 in0.0 mm 0.00 in/hr0.0 mm/hr 0.00 in0.0 mm
06:14 AM 54.7°F12.6°C 37.2°F2.9°C 52% 6.5 mph WSW10.5 kmh WSW 24.1 mph38.8 kmh 30.01 in1016.3 mb 0.00 in0.0 mm 0.00 in/hr0.0 mm/hr 0.00 in0.0 mm
06:19 AM 54.7°F12.6°C 37.2°F2.9°C 52% 3.3 mph S5.3 kmh S 24.1 mph38.8 kmh 30.01 in1016.3 mb 0.00 in0.0 mm 0.00 in/hr0.0 mm/hr 0.00 in0.0 mm
06:25 AM 54.1°F12.3°C 37.8°F3.2°C 54% 3.8 mph S6.1 kmh S 8.9 mph14.3 kmh 30.00 in1015.9 mb 0.00 in0.0 mm 0.00 in/hr0.0 mm/hr 0.00 in0.0 mm
06:30 AM 54.0°F12.2°C 37.9°F3.3°C 55% 4.9 mph WSW7.9 kmh WSW 12.3 mph19.8 kmh 30.00 in1015.9 mb 0.00 in0.0 mm 0.00 in/hr0.0 mm/hr 0.00 in0.0 mm
06:35 AM 53.8°F12.1°C 37.8°F3.2°C 55% 1.3 mph NW2.1 kmh NW 12.3 mph19.8 kmh 30.00 in1015.9 mb 0.00 in0.0 mm 0.00 in/hr0.0 mm/hr 0.00 in0.0 mm
06:40 AM 53.6°F12.0°C 38.1°F3.4°C 56% 1.5 mph SW2.4 kmh SW 7.3 mph11.7 kmh 30.00 in1015.9 mb 0.00 in0.0 mm 0.00 in/hr0.0 mm/hr 0.00 in0.0 mm
06:46 AM 53.6°F12.0°C 38.7°F3.7°C 57% 4.0 mph SE6.4 kmh SE 4.0 mph6.4 kmh 30.01 in1016.3 mb 0.00 in0.0 mm 0.00 in/hr0.0 mm/hr 0.00 in0.0 mm
06:51 AM 53.4°F11.9°C 38.5°F3.6°C 57% 4.1 mph SSE6.6 kmh SSE 12.7 mph20.4 kmh 30.01 in1016.3 mb 0.00 in0.0 mm 0.00 in/hr0.0 mm/hr 0.00 in0.0 mm
06:56 AM 53.2°F11.8°C 38.7°F3.7°C 58% 5.3 mph NE8.5 kmh NE 18.1 mph29.1 kmh 30.00 in1015.9 mb 0.00 in0.0 mm 0.00 in/hr0.0 mm/hr 0.00 in0.0 mm
07:01 AM 53.2°F11.8°C 38.7°F3.7°C 58% 2.9 mph SSE4.7 kmh SSE 18.1 mph29.1 kmh 30.00 in1015.9 mb 0.00 in0.0 mm 0.00 in/hr0.0 mm/hr 0.00 in0.0 mm
07:07 AM 53.2°F11.8°C 38.7°F3.7°C 58% 2.7 mph NW4.3 kmh NW 8.7 mph14.0 kmh 30.00 in1015.9 mb 0.00 in0.0 mm 0.00 in/hr0.0 mm/hr 0.00 in0.0 mm
07:12 AM 53.4°F11.9°C 38.8°F3.8°C 58% 2.6 mph S4.2 kmh S 8.7 mph14.0 kmh 30.00 in1015.9 mb 0.00 in0.0 mm 0.00 in/hr0.0 mm/hr 0.00 in0.0 mm
07:17 AM 54.3°F12.4°C 38.8°F3.8°C 56% 4.5 mph SSW7.2 kmh SSW 11.4 mph18.3 kmh 30.00 in1015.9 mb 0.00 in0.0 mm 0.00 in/hr0.0 mm/hr 0.00 in0.0 mm
07:22 AM 54.3°F12.4°C 38.8°F3.8°C 56% 4.9 mph WSW7.9 kmh WSW 11.4 mph18.3 kmh 30.00 in1015.9 mb 0.00 in0.0 mm 0.00 in/hr0.0 mm/hr 0.00 in0.0 mm
07:28 AM 54.9°F12.7°C 39.2°F4.0°C 56% 3.7 mph SE6.0 kmh SE 6.9 mph11.1 kmh 30.00 in1015.9 mb 0.00 in0.0 mm 0.00 in/hr0.0 mm/hr 0.00 in0.0 mm
07:33 AM 55.0°F12.8°C 39.2°F4.0°C 55% 4.6 mph WNW7.4 kmh WNW 4.6 mph7.4 kmh 30.01 in1016.3 mb 0.00 in0.0 mm 0.00 in/hr0.0 mm/hr 0.00 in0.0 mm
07:38 AM 56.4°F13.6°C 39.5°F4.2°C 53% 2.1 mph NW3.4 kmh NW 4.6 mph7.4 kmh 30.01 in1016.3 mb 0.00 in0.0 mm 0.00 in/hr0.0 mm/hr 0.00 in0.0 mm
07:43 AM 57.0°F13.9°C 39.1°F3.9°C 51% Calm Calm 5.3 mph8.5 kmh 30.01 in1016.3 mb 0.00 in0.0 mm 0.00 in/hr0.0 mm/hr 0.00 in0.0 mm
07:49 AM 55.6°F13.1°C 38.7°F3.7°C 53% 2.1 mph SW3.4 kmh SW 5.3 mph8.5 kmh 30.00 in1015.9 mb 0.00 in0.0 mm 0.00 in/hr0.0 mm/hr 0.00 in0.0 mm
07:54 AM 55.0°F12.8°C 38.2°F3.4°C 53% 1.4 mph WSW2.3 kmh WSW 4.9 mph7.9 kmh 30.00 in1015.9 mb 0.00 in0.0 mm 0.00 in/hr0.0 mm/hr 0.00 in0.0 mm
07:59 AM 55.0°F12.8°C 37.7°F3.2°C 52% 2.6 mph SSW4.2 kmh SSW 8.5 mph13.7 kmh 30.00 in1015.9 mb 0.00 in0.0 mm 0.00 in/hr0.0 mm/hr 0.00 in0.0 mm
08:04 AM 54.9°F12.7°C 37.6°F3.1°C 52% 2.0 mph S3.2 kmh S 18.5 mph29.8 kmh 30.00 in1015.9 mb 0.00 in0.0 mm 0.00 in/hr0.0 mm/hr 0.00 in0.0 mm
08:09 AM 55.3°F12.9°C 38.0°F3.3°C 52% 7.8 mph SW12.6 kmh SW 34.2 mph55.0 kmh 30.00 in1015.9 mb 0.00 in0.0 mm 0.00 in/hr0.0 mm/hr 0.00 in0.0 mm
08:15 AM 56.1°F13.4°C 38.7°F3.7°C 52% 7.0 mph SW11.3 kmh SW 34.2 mph55.0 kmh 29.99 in1015.6 mb 0.00 in0.0 mm 0.00 in/hr0.0 mm/hr 0.00 in0.0 mm
08:20 AM 56.6°F13.7°C 39.2°F4.0°C 52% 5.4 mph NE8.7 kmh NE 19.6 mph31.5 kmh 30.00 in1015.9 mb 0.00 in0.0 mm 0.00 in/hr0.0 mm/hr 0.00 in0.0 mm
08:25 AM 57.1°F13.9°C 39.2°F4.0°C 51% 7.4 mph WSW11.9 kmh WSW 18.7 mph30.1 kmh 30.00 in1015.9 mb 0.00 in0.0 mm 0.00 in/hr0.0 mm/hr 0.00 in0.0 mm
08:30 AM 57.9°F14.4°C 39.4°F4.1°C 50% 8.7 mph WSW14.0 kmh WSW 24.6 mph39.6 kmh 29.99 in1015.6 mb 0.00 in0.0 mm 0.00 in/hr0.0 mm/hr 0.00 in0.0 mm
08:36 AM 58.6°F14.8°C 39.5°F4.2°C 49% 7.3 mph S11.7 kmh S 24.6 mph39.6 kmh 30.00 in1015.9 mb 0.00 in0.0 mm 0.00 in/hr0.0 mm/hr 0.00 in0.0 mm
08:41 AM 59.4°F15.2°C 39.1°F3.9°C 47% 6.5 mph SSW10.5 kmh SSW 21.4 mph34.4 kmh 30.00 in1015.9 mb 0.00 in0.0 mm 0.00 in/hr0.0 mm/hr 0.00 in0.0 mm
08:46 AM 59.7°F15.4°C 40.0°F4.4°C 48% 6.0 mph SW9.7 kmh SW 17.0 mph27.4 kmh 30.00 in1015.9 mb 0.00 in0.0 mm 0.00 in/hr0.0 mm/hr 0.00 in0.0 mm
08:51 AM 58.4°F14.7°C 39.8°F4.3°C 50% 9.4 mph W15.1 kmh W 29.5 mph47.5 kmh 30.00 in1015.9 mb 0.00 in0.0 mm 0.00 in/hr0.0 mm/hr 0.00 in0.0 mm
08:57 AM 58.5°F14.7°C 40.4°F4.7°C 51% 6.4 mph SSE10.3 kmh SSE 29.5 mph47.5 kmh 30.00 in1015.9 mb 0.00 in0.0 mm 0.00 in/hr0.0 mm/hr 0.00 in0.0 mm
09:02 AM 57.6°F14.2°C 40.2°F4.6°C 52% 6.3 mph WSW10.1 kmh WSW 27.9 mph44.9 kmh 30.00 in1015.9 mb 0.00 in0.0 mm 0.00 in/hr0.0 mm/hr 0.00 in0.0 mm
09:07 AM 57.5°F14.2°C 40.5°F4.7°C 53% 7.9 mph SSW12.7 kmh SSW 27.9 mph44.9 kmh 30.00 in1015.9 mb 0.00 in0.0 mm 0.00 in/hr0.0 mm/hr 0.00 in0.0 mm
09:12 AM 57.3°F14.1°C 40.3°F4.6°C 53% 5.3 mph W8.5 kmh W 20.1 mph32.3 kmh 30.00 in1015.9 mb 0.00 in0.0 mm 0.00 in/hr0.0 mm/hr 0.00 in0.0 mm
09:18 AM 57.2°F14.0°C 40.3°F4.6°C 53% 8.6 mph SW13.8 kmh SW 31.9 mph51.3 kmh 30.00 in1015.9 mb 0.00 in0.0 mm 0.00 in/hr0.0 mm/hr 0.00 in0.0 mm
09:23 AM 57.1°F13.9°C 40.2°F4.6°C 53% 6.9 mph SSW11.1 kmh SSW 31.9 mph51.3 kmh 30.00 in1015.9 mb 0.00 in0.0 mm 0.00 in/hr0.0 mm/hr 0.00 in0.0 mm
09:28 AM 57.9°F14.4°C 39.9°F4.4°C 51% 5.7 mph SW9.2 kmh SW 23.2 mph37.3 kmh 30.00 in1015.9 mb 0.00 in0.0 mm 0.00 in/hr0.0 mm/hr 0.00 in0.0 mm
09:33 AM 57.7°F14.3°C 39.7°F4.3°C 51% 6.3 mph W10.1 kmh W 23.2 mph37.3 kmh 30.00 in1015.9 mb 0.00 in0.0 mm 0.00 in/hr0.0 mm/hr 0.00 in0.0 mm
09:39 AM 57.8°F14.3°C 39.3°F4.1°C 50% 6.0 mph WNW9.7 kmh WNW 21.9 mph35.2 kmh 30.01 in1016.3 mb 0.00 in0.0 mm 0.00 in/hr0.0 mm/hr 0.00 in0.0 mm
09:44 AM 57.7°F14.3°C 39.1°F3.9°C 50% 6.4 mph SW10.3 kmh SW 21.9 mph35.2 kmh 30.01 in1016.3 mb 0.00 in0.0 mm 0.00 in/hr0.0 mm/hr 0.00 in0.0 mm
09:49 AM 58.1°F14.5°C 39.6°F4.2°C 50% 5.4 mph SSW8.7 kmh SSW 21.6 mph34.8 kmh 30.01 in1016.3 mb 0.00 in0.0 mm 0.00 in/hr0.0 mm/hr 0.00 in0.0 mm
09:54 AM 58.1°F14.5°C 39.5°F4.2°C 50% 6.8 mph SW10.9 kmh SW 24.3 mph39.1 kmh 30.01 in1016.3 mb 0.00 in0.0 mm 0.00 in/hr0.0 mm/hr 0.00 in0.0 mm
10:00 AM 59.5°F15.3°C 40.3°F4.6°C 49% 6.1 mph SW9.8 kmh SW 24.3 mph39.1 kmh 30.01 in1016.3 mb 0.00 in0.0 mm 0.00 in/hr0.0 mm/hr 0.00 in0.0 mm
10:05 AM 61.1°F16.2°C 40.7°F4.8°C 47% 5.1 mph S8.2 kmh S 26.3 mph42.3 kmh 30.01 in1016.3 mb 0.00 in0.0 mm 0.00 in/hr0.0 mm/hr 0.00 in0.0 mm
10:10 AM 61.0°F16.1°C 40.0°F4.4°C 46% 7.8 mph SW12.6 kmh SW 27.5 mph44.3 kmh 30.01 in1016.3 mb 0.00 in0.0 mm 0.00 in/hr0.0 mm/hr 0.00 in0.0 mm
10:15 AM 60.7°F15.9°C 39.7°F4.3°C 46% 2.7 mph WSW4.3 kmh WSW 27.5 mph44.3 kmh 30.02 in1016.6 mb 0.00 in0.0 mm 0.00 in/hr0.0 mm/hr 0.00 in0.0 mm
10:21 AM 59.2°F15.1°C 39.5°F4.2°C 48% 6.3 mph WSW10.1 kmh WSW 17.8 mph28.6 kmh 30.02 in1016.6 mb 0.00 in0.0 mm 0.00 in/hr0.0 mm/hr 0.00 in0.0 mm
10:26 AM 58.0°F14.4°C 39.4°F4.1°C 50% 7.9 mph SW12.7 kmh SW 23.7 mph38.1 kmh 30.01 in1016.3 mb 0.00 in0.0 mm 0.00 in/hr0.0 mm/hr 0.00 in0.0 mm
10:31 AM 57.1°F13.9°C 40.2°F4.6°C 53% 6.7 mph SW10.8 kmh SW 23.7 mph38.1 kmh 30.01 in1016.3 mb 0.00 in0.0 mm 0.00 in/hr0.0 mm/hr 0.00 in0.0 mm
10:36 AM 57.0°F13.9°C 39.6°F4.2°C 52% 8.4 mph SSW13.5 kmh SSW 25.2 mph40.6 kmh 30.00 in1015.9 mb 0.00 in0.0 mm 0.00 in/hr0.0 mm/hr 0.00 in0.0 mm
10:42 AM 57.2°F14.0°C 39.8°F4.3°C 52% 7.0 mph WSW11.3 kmh WSW 25.2 mph40.6 kmh 30.01 in1016.3 mb 0.00 in0.0 mm 0.00 in/hr0.0 mm/hr 0.00 in0.0 mm
10:47 AM 57.3°F14.1°C 40.4°F4.7°C 53% 5.3 mph SW8.5 kmh SW 24.3 mph39.1 kmh 30.01 in1016.3 mb 0.00 in0.0 mm 0.00 in/hr0.0 mm/hr 0.00 in0.0 mm
10:52 AM 58.8°F14.9°C 40.2°F4.6°C 50% 4.9 mph SSW7.9 kmh SSW 24.3 mph39.1 kmh 30.01 in1016.3 mb 0.00 in0.0 mm 0.00 in/hr0.0 mm/hr 0.00 in0.0 mm
10:57 AM 57.8°F14.3°C 39.8°F4.3°C 51% 4.7 mph SW7.6 kmh SW 19.6 mph31.5 kmh 30.02 in1016.6 mb 0.00 in0.0 mm 0.00 in/hr0.0 mm/hr 0.00 in0.0 mm
11:03 AM 57.7°F14.3°C 39.7°F4.3°C 51% 5.5 mph SW8.9 kmh SW 25.9 mph41.7 kmh 30.02 in1016.6 mb 0.00 in0.0 mm 0.00 in/hr0.0 mm/hr 0.00 in0.0 mm
11:08 AM 56.9°F13.8°C 40.0°F4.4°C 53% 6.9 mph SSW11.1 kmh SSW 25.9 mph41.7 kmh 30.02 in1016.6 mb 0.00 in0.0 mm 0.00 in/hr0.0 mm/hr 0.00 in0.0 mm
11:13 AM 56.6°F13.7°C 39.7°F4.3°C 53% 6.6 mph SW10.6 kmh SW 20.1 mph32.3 kmh 30.02 in1016.6 mb 0.00 in0.0 mm 0.00 in/hr0.0 mm/hr 0.00 in0.0 mm
11:18 AM 58.1°F14.5°C 40.6°F4.8°C 52% 3.0 mph SW4.8 kmh SW 20.1 mph32.3 kmh 30.02 in1016.6 mb 0.00 in0.0 mm 0.00 in/hr0.0 mm/hr 0.00 in0.0 mm
11:24 AM 58.7°F14.8°C 40.1°F4.5°C 50% 2.4 mph SE3.9 kmh SE 13.4 mph21.6 kmh 30.01 in1016.3 mb 0.00 in0.0 mm 0.00 in/hr0.0 mm/hr 0.00 in0.0 mm
11:29 AM 57.7°F14.3°C 39.2°F4.0°C 50% 6.1 mph SW9.8 kmh SW 17.8 mph28.6 kmh 30.01 in1016.3 mb 0.00 in0.0 mm 0.00 in/hr0.0 mm/hr 0.00 in0.0 mm
11:34 AM 57.0°F13.9°C 39.1°F3.9°C 51% 6.7 mph SW10.8 kmh SW 23.2 mph37.3 kmh 30.01 in1016.3 mb 0.00 in0.0 mm 0.00 in/hr0.0 mm/hr 0.00 in0.0 mm
11:39 AM 58.0°F14.4°C 39.5°F4.2°C 50% 4.6 mph W7.4 kmh W 23.2 mph37.3 kmh 30.01 in1016.3 mb 0.00 in0.0 mm 0.00 in/hr0.0 mm/hr 0.00 in0.0 mm
11:45 AM 59.6°F15.3°C 39.8°F4.3°C 48% 4.3 mph WSW6.9 kmh WSW 15.6 mph25.1 kmh 30.01 in1016.3 mb 0.00 in0.0 mm 0.00 in/hr0.0 mm/hr 0.00 in0.0 mm
11:50 AM 60.1°F15.6°C 39.2°F4.0°C 46% 5.2 mph SW8.4 kmh SW 15.8 mph25.4 kmh 30.00 in1015.9 mb 0.00 in0.0 mm 0.00 in/hr0.0 mm/hr 0.00 in0.0 mm
11:55 AM 59.2°F15.1°C 37.7°F3.2°C 45% 7.3 mph SSW11.7 kmh SSW 24.6 mph39.6 kmh 30.00 in1015.9 mb 0.00 in0.0 mm 0.00 in/hr0.0 mm/hr 0.00 in0.0 mm
12:01 PM 59.1°F15.1°C 38.3°F3.5°C 46% 3.4 mph SSW5.5 kmh SSW 24.6 mph39.6 kmh 30.00 in1015.9 mb 0.00 in0.0 mm 0.00 in/hr0.0 mm/hr 0.00 in0.0 mm
12:06 PM 59.0°F15.0°C 38.8°F3.8°C 47% 6.3 mph SSW10.1 kmh SSW 15.2 mph24.5 kmh 30.00 in1015.9 mb 0.00 in0.0 mm 0.00 in/hr0.0 mm/hr 0.00 in0.0 mm
12:11 PM 58.6°F14.8°C 38.4°F3.6°C 47% 5.8 mph SW9.3 kmh SW 18.7 mph30.1 kmh 29.99 in1015.6 mb 0.00 in0.0 mm 0.00 in/hr0.0 mm/hr 0.00 in0.0 mm
12:16 PM 58.1°F14.5°C 39.5°F4.2°C 50% 6.5 mph SSW10.5 kmh SSW 18.7 mph30.1 kmh 29.99 in1015.6 mb 0.00 in0.0 mm 0.00 in/hr0.0 mm/hr 0.00 in0.0 mm
12:21 PM 58.9°F14.9°C 39.8°F4.3°C 49% 2.2 mph S3.5 kmh S 17.2 mph27.7 kmh 29.99 in1015.6 mb 0.00 in0.0 mm 0.00 in/hr0.0 mm/hr 0.00 in0.0 mm
12:27 PM 58.9°F14.9°C 39.8°F4.3°C 49% 7.0 mph SW11.3 kmh SW 20.1 mph32.3 kmh 30.00 in1015.9 mb 0.00 in0.0 mm 0.00 in/hr0.0 mm/hr 0.00 in0.0 mm
12:32 PM 58.3°F14.6°C 39.2°F4.0°C 49% 4.1 mph SW6.6 kmh SW 21.9 mph35.2 kmh 29.99 in1015.6 mb 0.00 in0.0 mm 0.00 in/hr0.0 mm/hr 0.00 in0.0 mm
12:37 PM 57.7°F14.3°C 39.7°F4.3°C 51% 4.2 mph S6.8 kmh S 21.9 mph35.2 kmh 30.00 in1015.9 mb 0.00 in0.0 mm 0.00 in/hr0.0 mm/hr 0.00 in0.0 mm
12:42 PM 56.6°F13.7°C 39.2°F4.0°C 52% 5.4 mph SW8.7 kmh SW 18.1 mph29.1 kmh 29.99 in1015.6 mb 0.00 in0.0 mm 0.00 in/hr0.0 mm/hr 0.00 in0.0 mm
12:48 PM 56.6°F13.7°C 40.7°F4.8°C 55% 2.8 mph SSW4.5 kmh SSW 18.1 mph29.1 kmh 29.99 in1015.6 mb 0.00 in0.0 mm 0.00 in/hr0.0 mm/hr 0.00 in0.0 mm
12:53 PM 55.7°F13.2°C 42.1°F5.6°C 60% 3.1 mph SSW5.0 kmh SSW 14.9 mph24.0 kmh 29.99 in1015.6 mb 0.00 in0.0 mm 0.00 in/hr0.0 mm/hr 0.00 in0.0 mm
12:58 PM 55.7°F13.2°C 41.7°F5.4°C 59% 1.1 mph S1.8 kmh S 7.3 mph11.7 kmh 29.99 in1015.6 mb 0.00 in0.0 mm 0.00 in/hr0.0 mm/hr 0.00 in0.0 mm
01:03 PM 56.4°F13.6°C 41.0°F5.0°C 56% 4.9 mph SW7.9 kmh SW 11.8 mph19.0 kmh 29.98 in1015.2 mb 0.00 in0.0 mm 0.00 in/hr0.0 mm/hr 0.00 in0.0 mm
01:09 PM 57.3°F14.1°C 39.9°F4.4°C 52% 4.8 mph SW7.7 kmh SW 15.4 mph24.8 kmh 29.98 in1015.2 mb 0.00 in0.0 mm 0.00 in/hr0.0 mm/hr 0.00 in0.0 mm
01:14 PM 57.5°F14.2°C 39.5°F4.2°C 51% 4.5 mph SW7.2 kmh SW 15.4 mph24.8 kmh 29.99 in1015.6 mb 0.00 in0.0 mm 0.00 in/hr0.0 mm/hr 0.00 in0.0 mm
01:19 PM 58.2°F14.6°C 39.7°F4.3°C 50% 3.6 mph SSW5.8 kmh SSW 13.1 mph21.1 kmh 29.98 in1015.2 mb 0.00 in0.0 mm 0.00 in/hr0.0 mm/hr 0.00 in0.0 mm
01:24 PM 57.4°F14.1°C 40.4°F4.7°C 53% 3.7 mph SW6.0 kmh SW 3.8 mph6.1 kmh 29.99 in1015.6 mb 0.00 in0.0 mm 0.00 in/hr0.0 mm/hr 0.00 in0.0 mm
01:30 PM 55.8°F13.2°C 42.2°F5.7°C 60% 1.8 mph SE2.9 kmh SE 8.0 mph12.9 kmh 29.98 in1015.2 mb 0.00 in0.0 mm 0.00 in/hr0.0 mm/hr 0.00 in0.0 mm
01:35 PM 56.2°F13.4°C 42.6°F5.9°C 60% 3.3 mph S5.3 kmh S 8.0 mph12.9 kmh 29.98 in1015.2 mb 0.00 in0.0 mm 0.00 in/hr0.0 mm/hr 0.00 in0.0 mm
01:40 PM 56.7°F13.7°C 42.7°F5.9°C 59% 4.8 mph SSW7.7 kmh SSW 11.6 mph18.7 kmh 29.98 in1015.2 mb 0.00 in0.0 mm 0.00 in/hr0.0 mm/hr 0.00 in0.0 mm
01:46 PM 56.1°F13.4°C 42.5°F5.8°C 60% 4.6 mph S7.4 kmh S 15.8 mph25.4 kmh 29.98 in1015.2 mb 0.00 in0.0 mm 0.00 in/hr0.0 mm/hr 0.00 in0.0 mm
01:51 PM 56.3°F13.5°C 43.2°F6.2°C 61% 3.2 mph S5.1 kmh S 15.8 mph25.4 kmh 29.98 in1015.2 mb 0.00 in0.0 mm 0.00 in/hr0.0 mm/hr 0.00 in0.0 mm
01:56 PM 55.1°F12.8°C 45.6°F7.6°C 70% 3.3 mph SSW5.3 kmh SSW 4.0 mph6.4 kmh 29.97 in1014.9 mb 0.00 in0.0 mm 0.00 in/hr0.0 mm/hr 0.00 in0.0 mm
02:01 PM 55.1°F12.8°C 44.9°F7.2°C 68% 2.4 mph WSW3.9 kmh WSW 4.2 mph6.8 kmh 29.97 in1014.9 mb 0.00 in0.0 mm 0.00 in/hr0.0 mm/hr 0.00 in0.0 mm
02:07 PM 55.0°F12.8°C 44.0°F6.7°C 66% 3.2 mph SW5.1 kmh SW 4.2 mph6.8 kmh 29.97 in1014.9 mb 0.02 in0.5 mm 0.20 in/hr5.1 mm/hr 0.02 in0.5 mm
02:12 PM 55.2°F12.9°C 43.4°F6.3°C 64% 2.6 mph SSE4.2 kmh SSE 4.2 mph6.8 kmh 29.96 in1014.6 mb 0.02 in0.5 mm 0.00 in/hr0.0 mm/hr 0.02 in0.5 mm
02:17 PM 55.1°F12.8°C 43.7°F6.5°C 65% 3.1 mph WSW5.0 kmh WSW 4.0 mph6.4 kmh 29.96 in1014.6 mb 0.02 in0.5 mm 0.00 in/hr0.0 mm/hr 0.02 in0.5 mm
02:22 PM 53.6°F12.0°C 44.5°F6.9°C 71% 4.7 mph SSW7.6 kmh SSW 17.6 mph28.3 kmh 29.97 in1014.9 mb 0.02 in0.5 mm 0.00 in/hr0.0 mm/hr 0.02 in0.5 mm
02:28 PM 53.6°F12.0°C 46.0°F7.8°C 75% 3.1 mph WSW5.0 kmh WSW 17.6 mph28.3 kmh 29.96 in1014.6 mb 0.02 in0.5 mm 0.00 in/hr0.0 mm/hr 0.02 in0.5 mm
02:33 PM 53.7°F12.1°C 45.7°F7.6°C 74% 3.1 mph W5.0 kmh W 17.0 mph27.4 kmh 29.96 in1014.6 mb 0.02 in0.5 mm 0.00 in/hr0.0 mm/hr 0.02 in0.5 mm
02:38 PM 54.0°F12.2°C 44.9°F7.2°C 71% 1.5 mph WNW2.4 kmh WNW 3.1 mph5.0 kmh 29.96 in1014.6 mb 0.04 in1.0 mm 0.24 in/hr6.1 mm/hr 0.04 in1.0 mm
02:44 PM 54.6°F12.6°C 45.5°F7.5°C 71% 3.3 mph SW5.3 kmh SW 3.5 mph5.6 kmh 29.97 in1014.9 mb 0.04 in1.0 mm 0.00 in/hr0.0 mm/hr 0.04 in1.0 mm
02:49 PM 54.7°F12.6°C 44.1°F6.7°C 67% 7.4 mph SSW11.9 kmh SSW 13.1 mph21.1 kmh 29.96 in1014.6 mb 0.04 in1.0 mm 0.00 in/hr0.0 mm/hr 0.04 in1.0 mm
02:54 PM 55.2°F12.9°C 43.7°F6.5°C 65% 2.9 mph SW4.7 kmh SW 13.1 mph21.1 kmh 29.97 in1014.9 mb 0.04 in1.0 mm 0.00 in/hr0.0 mm/hr 0.04 in1.0 mm
03:00 PM 54.9°F12.7°C 43.5°F6.4°C 65% 5.2 mph SW8.4 kmh SW 22.3 mph35.9 kmh 29.96 in1014.6 mb 0.02 in0.5 mm 0.00 in/hr0.0 mm/hr 0.04 in1.0 mm
03:06 PM 54.9°F12.7°C 43.9°F6.6°C 66% 4.3 mph SW6.9 kmh SW 22.3 mph35.9 kmh 29.96 in1014.6 mb 0.02 in0.5 mm 0.00 in/hr0.0 mm/hr 0.04 in1.0 mm
03:11 PM 55.0°F12.8°C 43.2°F6.2°C 64% 2.9 mph WSW4.7 kmh WSW 21.6 mph34.8 kmh 29.97 in1014.9 mb 0.02 in0.5 mm 0.00 in/hr0.0 mm/hr 0.04 in1.0 mm
03:16 PM 55.2°F12.9°C 42.1°F5.6°C 61% 5.7 mph SW9.2 kmh SW 19.0 mph30.6 kmh 29.97 in1014.9 mb 0.02 in0.5 mm 0.00 in/hr0.0 mm/hr 0.04 in1.0 mm
03:21 PM 55.5°F13.1°C 42.4°F5.8°C 61% 5.8 mph WSW9.3 kmh WSW 19.0 mph30.6 kmh 29.97 in1014.9 mb 0.02 in0.5 mm 0.00 in/hr0.0 mm/hr 0.04 in1.0 mm
03:27 PM 55.4°F13.0°C 42.3°F5.7°C 61% 6.0 mph WSW9.7 kmh WSW 19.2 mph30.9 kmh 29.98 in1015.2 mb 0.02 in0.5 mm 0.00 in/hr0.0 mm/hr 0.04 in1.0 mm
03:32 PM 55.7°F13.2°C 43.0°F6.1°C 62% 3.7 mph SW6.0 kmh SW 19.2 mph30.9 kmh 29.98 in1015.2 mb 0.02 in0.5 mm 0.00 in/hr0.0 mm/hr 0.04 in1.0 mm
03:37 PM 55.8°F13.2°C 43.1°F6.2°C 62% 3.8 mph SW6.1 kmh SW 10.9 mph17.5 kmh 29.97 in1014.9 mb 0.02 in0.5 mm 0.00 in/hr0.0 mm/hr 0.04 in1.0 mm
03:42 PM 54.4°F12.4°C 44.1°F6.7°C 68% 5.1 mph SW8.2 kmh SW 11.4 mph18.3 kmh 29.98 in1015.2 mb 0.02 in0.5 mm 0.00 in/hr0.0 mm/hr 0.04 in1.0 mm
03:48 PM 54.1°F12.3°C 44.3°F6.8°C 69% 1.2 mph SW1.9 kmh SW 11.4 mph18.3 kmh 29.98 in1015.2 mb 0.02 in0.5 mm 0.00 in/hr0.0 mm/hr 0.04 in1.0 mm
03:53 PM 54.4°F12.4°C 43.0°F6.1°C 65% 1.8 mph SW2.9 kmh SW 17.6 mph28.3 kmh 29.98 in1015.2 mb 0.02 in0.5 mm 0.00 in/hr0.0 mm/hr 0.04 in1.0 mm
03:58 PM 54.7°F12.6°C 42.9°F6.1°C 64% 2.0 mph W3.2 kmh W 17.6 mph28.3 kmh 29.98 in1015.2 mb 0.02 in0.5 mm 0.00 in/hr0.0 mm/hr 0.04 in1.0 mm
04:03 PM 54.7°F12.6°C 43.3°F6.3°C 65% 4.4 mph SSE7.1 kmh SSE 17.4 mph28.0 kmh 29.98 in1015.2 mb 0.00 in0.0 mm 0.00 in/hr0.0 mm/hr 0.04 in1.0 mm
04:09 PM 53.9°F12.2°C 43.7°F6.5°C 68% 4.1 mph SSW6.6 kmh SSW 10.5 mph16.9 kmh 29.98 in1015.2 mb 0.00 in0.0 mm 0.00 in/hr0.0 mm/hr 0.04 in1.0 mm
04:14 PM 54.4°F12.4°C 43.4°F6.3°C 66% 2.5 mph SW4.0 kmh SW 10.5 mph16.9 kmh 29.98 in1015.2 mb 0.00 in0.0 mm 0.00 in/hr0.0 mm/hr 0.04 in1.0 mm
04:19 PM 55.3°F12.9°C 43.0°F6.1°C 63% 0.8 mph SSW1.3 kmh SSW 8.7 mph14.0 kmh 29.97 in1014.9 mb 0.00 in0.0 mm 0.00 in/hr0.0 mm/hr 0.04 in1.0 mm
04:24 PM 55.9°F13.3°C 43.2°F6.2°C 62% Calm Calm 3.1 mph5.0 kmh 29.96 in1014.6 mb 0.00 in0.0 mm 0.00 in/hr0.0 mm/hr 0.04 in1.0 mm
04:29 PM 55.9°F13.3°C 42.3°F5.7°C 60% 4.3 mph WSW6.9 kmh WSW 8.7 mph14.0 kmh 29.97 in1014.9 mb 0.00 in0.0 mm 0.00 in/hr0.0 mm/hr 0.04 in1.0 mm
04:35 PM 55.9°F13.3°C 43.1°F6.2°C 62% 2.1 mph WSW3.4 kmh WSW 10.5 mph16.9 kmh 29.97 in1014.9 mb 0.00 in0.0 mm 0.00 in/hr0.0 mm/hr 0.04 in1.0 mm
04:40 PM 55.1°F12.8°C 42.8°F6.0°C 63% 3.0 mph S4.8 kmh S 14.3 mph23.0 kmh 29.96 in1014.6 mb 0.00 in0.0 mm 0.00 in/hr0.0 mm/hr 0.04 in1.0 mm
04:45 PM 55.4°F13.0°C 42.3°F5.7°C 61% 3.9 mph WSW6.3 kmh WSW 14.3 mph23.0 kmh 29.96 in1014.6 mb 0.00 in0.0 mm 0.00 in/hr0.0 mm/hr 0.04 in1.0 mm
04:50 PM 55.0°F12.8°C 43.9°F6.6°C 66% 1.1 mph WSW1.8 kmh WSW 13.6 mph21.9 kmh 29.97 in1014.9 mb 0.00 in0.0 mm 0.00 in/hr0.0 mm/hr 0.04 in1.0 mm
04:56 PM 53.3°F11.8°C 45.3°F7.4°C 74% 0.8 mph SW1.3 kmh SW 3.1 mph5.0 kmh 29.98 in1015.2 mb 0.00 in0.0 mm 0.00 in/hr0.0 mm/hr 0.04 in1.0 mm
05:01 PM 53.1°F11.7°C 45.7°F7.6°C 76% 2.2 mph WSW3.5 kmh WSW 2.6 mph4.2 kmh 29.97 in1014.9 mb 0.00 in0.0 mm 0.00 in/hr0.0 mm/hr 0.04 in1.0 mm
05:06 PM 52.9°F11.6°C 45.1°F7.3°C 76% 2.0 mph WSW3.2 kmh WSW 2.6 mph4.2 kmh 29.98 in1015.2 mb 0.00 in0.0 mm 0.00 in/hr0.0 mm/hr 0.04 in1.0 mm
05:11 PM 52.3°F11.3°C 45.3°F7.4°C 77% 2.4 mph W3.9 kmh W 2.6 mph4.2 kmh 29.98 in1015.2 mb 0.02 in0.5 mm 0.24 in/hr6.1 mm/hr 0.06 in1.5 mm
05:17 PM 52.2°F11.2°C 45.1°F7.3°C 77% 0.6 mph W1.0 kmh W 4.6 mph7.4 kmh 29.98 in1015.2 mb 0.02 in0.5 mm 0.00 in/hr0.0 mm/hr 0.06 in1.5 mm
05:22 PM 52.3°F11.3°C 45.3°F7.4°C 78% Calm Calm 4.6 mph7.4 kmh 29.98 in1015.2 mb 0.02 in0.5 mm 0.00 in/hr0.0 mm/hr 0.06 in1.5 mm
05:27 PM 52.3°F11.3°C 45.3°F7.4°C 79% Calm Calm 1.5 mph2.4 kmh 29.99 in1015.6 mb 0.02 in0.5 mm 0.00 in/hr0.0 mm/hr 0.06 in1.5 mm
05:32 PM 52.0°F11.1°C 46.0°F7.8°C 80% Calm Calm -- 29.98 in1015.2 mb 0.04 in1.0 mm 0.24 in/hr6.1 mm/hr 0.08 in2.0 mm
05:38 PM 51.4°F10.8°C 46.0°F7.8°C 82% Calm Calm -- 29.99 in1015.6 mb 0.04 in1.0 mm 0.00 in/hr0.0 mm/hr 0.08 in2.0 mm
05:43 PM 51.3°F10.7°C 45.9°F7.7°C 82% Calm Calm -- 29.98 in1015.2 mb 0.04 in1.0 mm 0.00 in/hr0.0 mm/hr 0.08 in2.0 mm
05:48 PM 51.1°F10.6°C 45.7°F7.6°C 82% 2.4 mph S3.9 kmh S 2.4 mph3.9 kmh 29.98 in1015.2 mb 0.04 in1.0 mm 0.00 in/hr0.0 mm/hr 0.08 in2.0 mm
05:54 PM 51.4°F10.8°C 46.0°F7.8°C 81% 2.8 mph SW4.5 kmh SW 2.9 mph4.7 kmh 29.98 in1015.2 mb 0.04 in1.0 mm 0.00 in/hr0.0 mm/hr 0.08 in2.0 mm
05:59 PM 52.0°F11.1°C 44.6°F7.0°C 76% 3.4 mph SW5.5 kmh SW 7.6 mph12.2 kmh 29.98 in1015.2 mb 0.04 in1.0 mm 0.00 in/hr0.0 mm/hr 0.08 in2.0 mm
06:04 PM 52.3°F11.3°C 43.9°F6.6°C 73% 3.3 mph SSE5.3 kmh SSE 7.6 mph12.2 kmh 29.98 in1015.2 mb 0.04 in1.0 mm 0.00 in/hr0.0 mm/hr 0.08 in2.0 mm
06:09 PM 52.5°F11.4°C 43.7°F6.5°C 72% 5.5 mph SW8.9 kmh SW 6.4 mph10.3 kmh 29.98 in1015.2 mb 0.04 in1.0 mm 0.00 in/hr0.0 mm/hr 0.08 in2.0 mm
06:15 PM 52.7°F11.5°C 43.2°F6.2°C 70% 1.1 mph SE1.8 kmh SE 12.5 mph20.1 kmh 29.99 in1015.6 mb 0.04 in1.0 mm 0.00 in/hr0.0 mm/hr 0.08 in2.0 mm
06:20 PM 52.9°F11.6°C 43.3°F6.3°C 70% 6.9 mph SW11.1 kmh SW 16.3 mph26.2 kmh 29.99 in1015.6 mb 0.04 in1.0 mm 0.00 in/hr0.0 mm/hr 0.08 in2.0 mm
06:25 PM 52.5°F11.4°C 43.0°F6.1°C 70% 3.8 mph WSW6.1 kmh WSW 16.3 mph26.2 kmh 29.98 in1015.2 mb 0.04 in1.0 mm 0.00 in/hr0.0 mm/hr 0.08 in2.0 mm
06:30 PM 52.3°F11.3°C 43.5°F6.4°C 72% 3.7 mph W6.0 kmh W 25.7 mph41.4 kmh 29.99 in1015.6 mb 0.04 in1.0 mm 0.00 in/hr0.0 mm/hr 0.08 in2.0 mm
06:35 PM 52.0°F11.1°C 43.2°F6.2°C 72% Calm Calm 8.5 mph13.7 kmh 29.99 in1015.6 mb 0.02 in0.5 mm 0.00 in/hr0.0 mm/hr 0.08 in2.0 mm
06:41 PM 52.3°F11.3°C 43.2°F6.2°C 71% 4.1 mph WSW6.6 kmh WSW 17.6 mph28.3 kmh 29.99 in1015.6 mb 0.02 in0.5 mm 0.00 in/hr0.0 mm/hr 0.10 in2.5 mm
06:46 PM 52.2°F11.2°C 44.1°F6.7°C 74% 3.5 mph WSW5.6 kmh WSW 17.6 mph28.3 kmh 29.99 in1015.6 mb 0.02 in0.5 mm 0.00 in/hr0.0 mm/hr 0.10 in2.5 mm
06:51 PM 51.6°F10.9°C 44.2°F6.8°C 76% 1.3 mph WSW2.1 kmh WSW 11.6 mph18.7 kmh 30.00 in1015.9 mb 0.02 in0.5 mm 0.00 in/hr0.0 mm/hr 0.10 in2.5 mm
06:57 PM 51.1°F10.6°C 44.1°F6.7°C 77% 0.8 mph W1.3 kmh W 8.2 mph13.2 kmh 30.00 in1015.9 mb 0.02 in0.5 mm 0.00 in/hr0.0 mm/hr 0.10 in2.5 mm
07:02 PM 50.7°F10.4°C 44.4°F6.9°C 79% Calm Calm 8.2 mph13.2 kmh 30.00 in1015.9 mb 0.02 in0.5 mm 0.00 in/hr0.0 mm/hr 0.10 in2.5 mm
07:07 PM 50.4°F10.2°C 44.1°F6.7°C 79% Calm Calm 0.8 mph1.3 kmh 30.00 in1015.9 mb 0.02 in0.5 mm 0.00 in/hr0.0 mm/hr 0.10 in2.5 mm
07:12 PM 50.2°F10.1°C 44.8°F7.1°C 82% Calm Calm -- 30.01 in1016.3 mb 0.04 in1.0 mm 0.24 in/hr6.1 mm/hr 0.12 in3.0 mm
07:18 PM 50.2°F10.1°C 44.8°F7.1°C 82% 0.8 mph S1.3 kmh S 6.7 mph10.8 kmh 30.00 in1015.9 mb 0.04 in1.0 mm 0.00 in/hr0.0 mm/hr 0.12 in3.0 mm
07:23 PM 49.8°F9.9°C 44.4°F6.9°C 82% Calm Calm 6.7 mph10.8 kmh 30.00 in1015.9 mb 0.04 in1.0 mm 0.00 in/hr0.0 mm/hr 0.12 in3.0 mm
07:28 PM 50.2°F10.1°C 44.8°F7.1°C 82% 4.9 mph WNW7.9 kmh WNW 4.9 mph7.9 kmh 30.00 in1015.9 mb 0.04 in1.0 mm 0.00 in/hr0.0 mm/hr 0.12 in3.0 mm
07:33 PM 50.2°F10.1°C 44.8°F7.1°C 82% Calm Calm 4.9 mph7.9 kmh 30.00 in1015.9 mb 0.04 in1.0 mm 0.00 in/hr0.0 mm/hr 0.14 in3.6 mm
07:38 PM 50.2°F10.1°C 44.8°F7.1°C 82% Calm Calm -- 30.00 in1015.9 mb 0.04 in1.0 mm 0.00 in/hr0.0 mm/hr 0.14 in3.6 mm
07:44 PM 50.0°F10.0°C 44.6°F7.0°C 82% Calm Calm -- 30.00 in1015.9 mb 0.04 in1.0 mm 0.00 in/hr0.0 mm/hr 0.14 in3.6 mm
07:49 PM 50.0°F10.0°C 44.6°F7.0°C 82% Calm Calm 0.6 mph1.0 kmh 30.00 in1015.9 mb 0.04 in1.0 mm 0.00 in/hr0.0 mm/hr 0.14 in3.6 mm
07:54 PM 50.0°F10.0°C 44.6°F7.0°C 82% Calm Calm 0.6 mph1.0 kmh 30.00 in1015.9 mb 0.06 in1.5 mm 0.24 in/hr6.1 mm/hr 0.17 in4.3 mm
08:00 PM 49.8°F9.9°C 44.4°F6.9°C 83% Calm Calm -- 30.01 in1016.3 mb 0.06 in1.5 mm 0.00 in/hr0.0 mm/hr 0.17 in4.3 mm
08:05 PM 49.6°F9.8°C 44.6°F7.0°C 84% Calm Calm -- 30.01 in1016.3 mb 0.08 in2.0 mm 0.24 in/hr6.1 mm/hr 0.19 in4.8 mm
08:10 PM 49.6°F9.8°C 44.6°F7.0°C 83% Calm Calm -- 30.01 in1016.3 mb 0.08 in2.0 mm 0.00 in/hr0.0 mm/hr 0.19 in4.8 mm
08:15 PM 49.3°F9.6°C 44.4°F6.9°C 84% Calm Calm -- 30.01 in1016.3 mb 0.10 in2.5 mm 0.24 in/hr6.1 mm/hr 0.22 in5.6 mm
08:21 PM 49.3°F9.6°C 44.4°F6.9°C 84% Calm Calm -- 30.01 in1016.3 mb 0.10 in2.5 mm 0.00 in/hr0.0 mm/hr 0.22 in5.6 mm
08:26 PM 49.5°F9.7°C 45.0°F7.2°C 85% Calm Calm -- 30.02 in1016.6 mb 0.10 in2.5 mm 0.00 in/hr0.0 mm/hr 0.22 in5.6 mm
08:31 PM 49.5°F9.7°C 45.0°F7.2°C 86% Calm Calm -- 30.01 in1016.3 mb 0.10 in2.5 mm 0.00 in/hr0.0 mm/hr 0.22 in5.6 mm
08:36 PM 49.3°F9.6°C 45.1°F7.3°C 86% Calm Calm -- 30.01 in1016.3 mb 0.10 in2.5 mm 0.00 in/hr0.0 mm/hr 0.22 in5.6 mm
08:42 PM 49.6°F9.8°C 45.9°F7.7°C 87% Calm Calm -- 30.01 in1016.3 mb 0.10 in2.5 mm 0.00 in/hr0.0 mm/hr 0.24 in6.1 mm
08:47 PM 49.5°F9.7°C 45.7°F7.6°C 87% 1.1 mph NE1.8 kmh NE 1.1 mph1.8 kmh 30.01 in1016.3 mb 0.10 in2.5 mm 0.00 in/hr0.0 mm/hr 0.24 in6.1 mm
08:52 PM 49.3°F9.6°C 45.5°F7.5°C 87% 2.9 mph NE4.7 kmh NE 3.3 mph5.3 kmh 30.01 in1016.3 mb 0.10 in2.5 mm 0.00 in/hr0.0 mm/hr 0.24 in6.1 mm
08:57 PM 49.3°F9.6°C 45.5°F7.5°C 86% 3.1 mph ENE5.0 kmh ENE 3.3 mph5.3 kmh 30.01 in1016.3 mb 0.10 in2.5 mm 0.00 in/hr0.0 mm/hr 0.24 in6.1 mm
09:03 PM 49.3°F9.6°C 45.5°F7.5°C 87% 2.0 mph ENE3.2 kmh ENE 3.1 mph5.0 kmh 30.01 in1016.3 mb 0.08 in2.0 mm 0.00 in/hr0.0 mm/hr 0.24 in6.1 mm
09:08 PM 49.3°F9.6°C 45.5°F7.5°C 87% Calm Calm 3.1 mph5.0 kmh 30.01 in1016.3 mb 0.08 in2.0 mm 0.00 in/hr0.0 mm/hr 0.24 in6.1 mm
09:13 PM 49.3°F9.6°C 45.5°F7.5°C 87% 2.4 mph NE3.9 kmh NE 3.1 mph5.0 kmh 30.02 in1016.6 mb 0.08 in2.0 mm 0.00 in/hr0.0 mm/hr 0.24 in6.1 mm
09:18 PM 49.3°F9.6°C 45.7°F7.6°C 88% 2.7 mph NE4.3 kmh NE 3.8 mph6.1 kmh 30.02 in1016.6 mb 0.08 in2.0 mm 0.00 in/hr0.0 mm/hr 0.24 in6.1 mm
09:24 PM 49.3°F9.6°C 45.7°F7.6°C 88% 1.4 mph NE2.3 kmh NE 3.8 mph6.1 kmh 30.02 in1016.6 mb 0.04 in1.0 mm 0.00 in/hr0.0 mm/hr 0.26 in6.6 mm
09:29 PM 49.3°F9.6°C 45.7°F7.6°C 89% 1.8 mph NE2.9 kmh NE 3.8 mph6.1 kmh 30.02 in1016.6 mb 0.04 in1.0 mm 0.00 in/hr0.0 mm/hr 0.26 in6.6 mm
09:34 PM 49.5°F9.7°C 46.2°F7.9°C 89% 1.9 mph ENE3.1 kmh ENE 2.4 mph3.9 kmh 30.01 in1016.3 mb 0.06 in1.5 mm 0.24 in/hr6.1 mm/hr 0.29 in7.4 mm
09:39 PM 49.5°F9.7°C 46.6°F8.1°C 90% 4.9 mph NE7.9 kmh NE 5.1 mph8.2 kmh 30.01 in1016.3 mb 0.06 in1.5 mm 0.00 in/hr0.0 mm/hr 0.29 in7.4 mm
09:45 PM 49.5°F9.7°C 46.6°F8.1°C 90% 2.2 mph NE3.5 kmh NE 5.1 mph8.2 kmh 30.02 in1016.6 mb 0.06 in1.5 mm 0.00 in/hr0.0 mm/hr 0.29 in7.4 mm
09:50 PM 49.3°F9.6°C 46.4°F8.0°C 90% 2.6 mph NNE4.2 kmh NNE 4.4 mph7.1 kmh 30.03 in1016.9 mb 0.06 in1.5 mm 0.00 in/hr0.0 mm/hr 0.29 in7.4 mm
09:55 PM 48.9°F9.4°C 46.0°F7.8°C 90% 0.4 mph NNE0.6 kmh NNE 2.6 mph4.2 kmh 30.02 in1016.6 mb 0.06 in1.5 mm 0.00 in/hr0.0 mm/hr 0.31 in7.9 mm
10:00 PM 48.9°F9.4°C 46.0°F7.8°C 90% Calm Calm 0.4 mph0.6 kmh 30.03 in1016.9 mb 0.06 in1.5 mm 0.00 in/hr0.0 mm/hr 0.31 in7.9 mm
10:06 PM 48.7°F9.3°C 45.5°F7.5°C 90% Calm Calm -- 30.03 in1016.9 mb 0.08 in2.0 mm 0.20 in/hr5.1 mm/hr 0.33 in8.4 mm
10:11 PM 48.7°F9.3°C 45.5°F7.5°C 90% Calm Calm -- 30.02 in1016.6 mb 0.08 in2.0 mm 0.00 in/hr0.0 mm/hr 0.33 in8.4 mm
10:16 PM 48.7°F9.3°C 45.5°F7.5°C 90% Calm Calm -- 30.03 in1016.9 mb 0.08 in2.0 mm 0.00 in/hr0.0 mm/hr 0.33 in8.4 mm
10:21 PM 48.6°F9.2°C 45.7°F7.6°C 90% Calm Calm -- 30.02 in1016.6 mb 0.08 in2.0 mm 0.00 in/hr0.0 mm/hr 0.33 in8.4 mm
10:27 PM 48.6°F9.2°C 45.7°F7.6°C 90% 0.8 mph NE1.3 kmh NE 0.8 mph1.3 kmh 30.02 in1016.6 mb 0.08 in2.0 mm 0.00 in/hr0.0 mm/hr 0.33 in8.4 mm
10:32 PM 48.4°F9.1°C 45.5°F7.5°C 90% 2.4 mph ENE3.9 kmh ENE 2.4 mph3.9 kmh 30.01 in1016.3 mb 0.08 in2.0 mm 0.00 in/hr0.0 mm/hr 0.33 in8.4 mm
10:37 PM 48.4°F9.1°C 45.5°F7.5°C 90% Calm Calm 2.4 mph3.9 kmh 30.01 in1016.3 mb 0.08 in2.0 mm 0.00 in/hr0.0 mm/hr 0.33 in8.4 mm
10:42 PM 48.0°F8.9°C 45.3°F7.4°C 90% 0.4 mph NE0.6 kmh NE 2.4 mph3.9 kmh 30.01 in1016.3 mb 0.08 in2.0 mm 0.00 in/hr0.0 mm/hr 0.33 in8.4 mm
10:48 PM 47.8°F8.8°C 45.1°F7.3°C 90% 2.9 mph ENE4.7 kmh ENE 2.9 mph4.7 kmh 30.01 in1016.3 mb 0.08 in2.0 mm 0.00 in/hr0.0 mm/hr 0.33 in8.4 mm
10:53 PM 47.5°F8.6°C 44.8°F7.1°C 90% 2.3 mph NE3.7 kmh NE 4.4 mph7.1 kmh 30.00 in1015.9 mb 0.08 in2.0 mm 0.00 in/hr0.0 mm/hr 0.33 in8.4 mm
10:58 PM 47.5°F8.6°C 44.8°F7.1°C 90% Calm Calm 4.4 mph7.1 kmh 30.00 in1015.9 mb 0.08 in2.0 mm 0.00 in/hr0.0 mm/hr 0.33 in8.4 mm
11:03 PM 47.5°F8.6°C 44.8°F7.1°C 90% Calm Calm 4.4 mph7.1 kmh 30.00 in1015.9 mb 0.00 in0.0 mm 0.00 in/hr0.0 mm/hr 0.33 in8.4 mm
11:09 PM 47.3°F8.5°C 44.6°F7.0°C 90% 2.0 mph ENE3.2 kmh ENE 2.0 mph3.2 kmh 30.00 in1015.9 mb 0.00 in0.0 mm 0.00 in/hr0.0 mm/hr 0.33 in8.4 mm
11:14 PM 47.1°F8.4°C 44.4°F6.9°C 90% 1.4 mph ENE2.3 kmh ENE 2.2 mph3.5 kmh 30.00 in1015.9 mb 0.00 in0.0 mm 0.00 in/hr0.0 mm/hr 0.33 in8.4 mm
11:19 PM 47.3°F8.5°C 44.6°F7.0°C 90% Calm Calm 2.2 mph3.5 kmh 30.01 in1016.3 mb 0.00 in0.0 mm 0.00 in/hr0.0 mm/hr 0.33 in8.4 mm
11:24 PM 46.9°F8.3°C 44.2°F6.8°C 90% 2.5 mph E4.0 kmh E 6.2 mph10.0 kmh 30.00 in1015.9 mb 0.00 in0.0 mm 0.00 in/hr0.0 mm/hr 0.33 in8.4 mm
11:30 PM 46.8°F8.2°C 44.2°F6.8°C 91% 3.1 mph NE5.0 kmh NE 6.7 mph10.8 kmh 29.99 in1015.6 mb 0.00 in0.0 mm 0.00 in/hr0.0 mm/hr 0.33 in8.4 mm
11:35 PM 46.2°F7.9°C 43.7°F6.5°C 91% 3.5 mph ESE5.6 kmh ESE 6.7 mph10.8 kmh 29.99 in1015.6 mb 0.00 in0.0 mm 0.00 in/hr0.0 mm/hr 0.33 in8.4 mm
11:40 PM 45.7°F7.6°C 43.0°F6.1°C 90% 1.5 mph ENE2.4 kmh ENE 4.9 mph7.9 kmh 29.99 in1015.6 mb 0.00 in0.0 mm 0.00 in/hr0.0 mm/hr 0.33 in8.4 mm
11:45 PM 45.7°F7.6°C 43.0°F6.1°C 91% Calm Calm 4.9 mph7.9 kmh 29.99 in1015.6 mb 0.00 in0.0 mm 0.00 in/hr0.0 mm/hr 0.33 in8.4 mm
11:51 PM 45.5°F7.5°C 43.0°F6.1°C 91% 2.3 mph ENE3.7 kmh ENE 3.1 mph5.0 kmh 29.99 in1015.6 mb 0.00 in0.0 mm 0.00 in/hr0.0 mm/hr 0.33 in8.4 mm
11:56 PM 45.5°F7.5°C 43.0°F6.1°C 91% Calm Calm 3.1 mph5.0 kmh 29.99 in1015.6 mb 0.00 in0.0 mm 0.00 in/hr0.0 mm/hr 0.33 in8.4 mm